Time;durP1;ratioP1;P1;durP2;ratioP2;P2;SDS_P1;SDS_P2;PMS_P1;PMS_P2;Temp;Humidity;BMP_temperature;BMP_pressure;BME280_temperature;BME280_humidity;BME280_pressure;Samples;Min_cycle;Max_cycle;Signal;HPM_P1;HPM_P2
2023/12/14 00:02:20;;;;;;;1.10;1.00;;;;;;;8.09;96.53;94526.59;5014885;28;20273;-89
2023/12/14 00:04:53;;;;;;;1.13;0.90;;;;;;;8.12;96.75;94535.69;5029067;28;20222;-89
2023/12/14 00:07:28;;;;;;;1.77;0.80;;;;;;;8.12;97.29;94539.03;5026246;28;20258;-87
2023/12/14 00:10:00;;;;;;;1.20;1.10;;;;;;;8.15;97.12;94540.44;5009203;28;20187;-89
2023/12/14 00:12:33;;;;;;;1.10;1.10;;;;;;;8.16;96.94;94542.81;5009525;28;20213;-89
2023/12/14 00:15:08;;;;;;;1.20;0.90;;;;;;;8.17;96.65;94541.06;5009001;28;20202;-89
2023/12/14 00:17:45;;;;;;;1.63;0.90;;;;;;;8.16;96.38;94555.63;5010491;28;20219;-89
2023/12/14 00:20:16;;;;;;;1.30;0.87;;;;;;;8.12;96.56;94545.94;5019038;28;20576;-89
2023/12/14 00:22:50;;;;;;;1.00;0.90;;;;;;;8.14;96.98;94554.25;5009530;28;20206;-89
2023/12/14 00:25:27;;;;;;;1.00;0.90;;;;;;;8.20;96.48;94551.72;5019626;28;20706;-89
2023/12/14 00:27:58;;;;;;;1.33;1.13;;;;;;;8.16;96.25;94545.38;5012989;28;20868;-89
2023/12/14 00:30:34;;;;;;;1.13;1.03;;;;;;;8.19;96.59;94559.59;5018122;28;20198;-89
2023/12/14 00:33:03;;;;;;;1.40;1.13;;;;;;;8.17;96.11;94556.44;5027225;28;20196;-89
2023/12/14 00:35:39;;;;;;;1.30;1.20;;;;;;;8.18;97.11;94568.28;5026860;28;20194;-89
2023/12/14 00:38:07;;;;;;;1.50;1.23;;;;;;;8.05;97.44;94570.75;5016376;28;20222;-89
2023/12/14 00:40:42;;;;;;;1.67;1.20;;;;;;;8.02;97.77;94594.97;5008097;28;20203;-87
2023/12/14 00:43:14;;;;;;;2.27;1.27;;;;;;;7.98;98.55;94607.38;5008360;28;20205;-87
2023/12/14 00:45:41;;;;;;;1.70;1.60;;;;;;;8.02;98.71;94612.13;5008225;28;20285;-87
2023/12/14 00:48:07;;;;;;;1.20;1.10;;;;;;;8.04;98.84;94612.75;5008488;28;20225;-87
2023/12/14 00:50:35;;;;;;;2.10;1.20;;;;;;;8.06;99.12;94623.59;5021720;28;20198;-86
2023/12/14 00:53:01;;;;;;;1.90;1.00;;;;;;;8.05;99.13;94633.06;5027710;28;20213;-87
2023/12/14 00:55:28;;;;;;;1.30;1.07;;;;;;;8.03;99.27;94637.56;5019990;28;20202;-87
2023/12/14 00:57:54;;;;;;;2.23;1.10;;;;;;;8.02;100.00;94642.88;5008988;28;20837;-87
2023/12/14 01:00:21;;;;;;;1.77;1.20;;;;;;;8.00;100.00;94653.31;5008287;28;20552;-88
2023/12/14 01:02:47;;;;;;;1.50;1.20;;;;;;;7.94;100.00;94665.09;5011712;28;20206;-88
2023/12/14 01:05:14;;;;;;;1.97;1.10;;;;;;;8.01;100.00;94656.69;5028346;28;20222;-87
2023/12/14 01:07:42;;;;;;;2.50;1.30;;;;;;;8.00;99.86;94658.44;5024570;28;20888;-88
2023/12/14 01:10:09;;;;;;;4.23;1.40;;;;;;;7.93;100.00;94671.19;5027831;28;20221;-87
2023/12/14 01:12:47;;;;;;;1.03;1.03;;;;;;;7.93;99.91;94665.25;5031217;28;20205;-87
2023/12/14 01:15:18;;;;;;;1.10;1.00;;;;;;;7.89;99.94;94681.97;5032052;28;20222;-88
2023/12/14 01:17:54;;;;;;;1.20;1.10;;;;;;;7.85;100.00;94681.56;5023923;28;20211;-87
2023/12/14 01:20:23;;;;;;;1.33;1.23;;;;;;;7.81;98.47;94662.41;5017203;28;20618;-87
2023/12/14 01:23:01;;;;;;;1.43;1.10;;;;;;;7.82;98.26;94655.50;5020539;28;20198;-87
2023/12/14 01:25:37;;;;;;;0.90;0.90;;;;;;;7.83;98.00;94651.97;5030898;28;20690;-87
2023/12/14 01:28:09;;;;;;;1.00;1.00;;;;;;;7.82;98.40;94668.31;5028745;28;20225;-87
2023/12/14 01:30:37;;;;;;;1.13;0.80;;;;;;;7.80;97.85;94658.25;5030966;28;20730;-86
2023/12/14 01:33:14;;;;;;;1.00;0.90;;;;;;;7.82;98.39;94674.25;5031378;28;20336;-88
2023/12/14 01:35:49;;;;;;;1.30;0.70;;;;;;;7.89;98.58;94679.41;5031803;28;20571;-87
2023/12/14 01:38:23;;;;;;;0.80;0.80;;;;;;;7.89;98.39;94685.34;5029240;28;20218;-87
2023/12/14 01:40:55;;;;;;;0.90;0.80;;;;;;;7.86;99.58;94701.09;5031350;28;20289;-87
2023/12/14 01:43:30;;;;;;;1.10;1.00;;;;;;;7.86;100.00;94713.91;5031092;28;20289;-87
2023/12/14 01:46:02;;;;;;;0.70;0.70;;;;;;;7.88;99.75;94711.97;5031364;28;20556;-87
2023/12/14 01:48:29;;;;;;;1.07;0.97;;;;;;;7.93;99.59;94707.06;5017457;28;20199;-87
2023/12/14 01:50:56;;;;;;;0.80;0.80;;;;;;;7.93;99.69;94709.63;5029982;28;20735;-87
2023/12/14 01:53:23;;;;;;;1.23;0.83;;;;;;;8.00;99.24;94708.91;5030944;28;20209;-88
2023/12/14 01:55:50;;;;;;;0.60;0.60;;;;;;;7.92;99.07;94717.50;5029391;28;20202;-88
2023/12/14 01:58:16;;;;;;;0.70;0.70;;;;;;;7.88;99.70;94732.47;5019356;28;20227;-87
2023/12/14 02:00:49;;;;;;;0.60;0.60;;;;;;;7.87;99.85;94735.22;5028416;28;20226;-87
2023/12/14 02:03:22;;;;;;;1.07;0.70;;;;;;;7.87;99.85;94730.09;5036556;28;20229;-87
2023/12/14 02:05:54;;;;;;;0.70;0.70;;;;;;;7.88;100.00;94741.91;5030960;28;20234;-87
2023/12/14 02:08:25;;;;;;;0.60;0.60;;;;;;;7.90;100.00;94750.19;5022326;28;20206;-87
2023/12/14 02:10:53;;;;;;;0.77;0.70;;;;;;;7.88;99.91;94745.28;5015150;28;20206;-87
2023/12/14 02:13:19;;;;;;;0.60;0.60;;;;;;;7.86;100.00;94752.34;5028324;28;20207;-87
2023/12/14 02:15:46;;;;;;;1.70;0.70;;;;;;;7.80;99.71;94744.56;5030913;28;20198;-87
2023/12/14 02:18:13;;;;;;;1.40;0.80;;;;;;;7.86;100.00;94751.56;5026597;28;20217;-87
2023/12/14 02:20:39;;;;;;;0.70;0.70;;;;;;;7.74;100.00;94774.25;5026105;28;20215;-87
2023/12/14 02:23:13;;;;;;;0.70;0.70;;;;;;;7.73;100.00;94780.34;5025170;28;20206;-87
2023/12/14 02:25:45;;;;;;;0.70;0.70;;;;;;;7.75;100.00;94795.56;5010600;28;20222;-87
2023/12/14 02:28:20;;;;;;;1.60;1.10;;;;;;;7.77;100.00;94803.88;5022130;28;20222;-87
2023/12/14 02:30:52;;;;;;;1.77;1.00;;;;;;;7.84;100.00;94804.75;5019881;28;20202;-87
2023/12/14 02:33:25;;;;;;;1.00;0.90;;;;;;;7.81;100.00;94821.28;5018401;28;20226;-87
2023/12/14 02:35:54;;;;;;;1.37;1.00;;;;;;;7.82;100.00;94824.63;5010413;28;20584;-86
2023/12/14 02:38:22;;;;;;;1.20;1.10;;;;;;;7.75;100.00;94828.88;5010123;28;20683;-87
2023/12/14 02:40:50;;;;;;;1.27;1.17;;;;;;;7.76;100.00;94841.50;5010604;28;20207;-86
2023/12/14 02:43:16;;;;;;;1.10;1.10;;;;;;;7.76;100.00;94844.06;5012759;28;20230;-87
2023/12/14 02:45:43;;;;;;;1.20;1.10;;;;;;;7.77;100.00;94840.53;5029806;28;20229;-87
2023/12/14 02:48:09;;;;;;;1.20;1.10;;;;;;;7.76;100.00;94849.19;5021586;28;20226;-87
2023/12/14 02:50:42;;;;;;;1.23;1.13;;;;;;;7.78;100.00;94859.25;5022748;28;20728;-87
2023/12/14 02:53:09;;;;;;;1.30;1.20;;;;;;;7.76;100.00;94859.44;5010176;28;20672;-86
2023/12/14 02:55:37;;;;;;;1.33;1.10;;;;;;;7.82;100.00;94860.50;5010160;28;20214;-88
2023/12/14 02:58:51;;;;;;;1.30;1.20;;;;;;;7.84;100.00;94861.91;5010025;28;20219;-89
2023/12/14 03:01:19;;;;;;;1.30;1.20;;;;;;;7.87;100.00;94865.91;5032579;28;20297;-88
2023/12/14 03:03:45;;;;;;;1.20;1.10;;;;;;;7.81;100.00;94866.59;5029890;28;20202;-87
2023/12/14 03:06:12;;;;;;;1.40;1.30;;;;;;;7.77;100.00;94866.16;5028308;28;20225;-87
2023/12/14 03:08:38;;;;;;;1.30;1.20;;;;;;;7.76;100.00;94871.44;5020278;28;20194;-86
2023/12/14 03:11:21;;;;;;;1.13;1.10;;;;;;;7.78;100.00;94872.06;5030056;28;20206;-88
2023/12/14 03:13:48;;;;;;;1.40;1.30;;;;;;;7.74;100.00;94884.44;5029034;28;20195;-86
2023/12/14 03:16:16;;;;;;;1.60;1.50;;;;;;;7.69;100.00;94891.06;5020457;28;20206;-87
2023/12/14 03:18:43;;;;;;;1.07;1.07;;;;;;;7.64;100.00;94883.91;5028200;28;20198;-87
2023/12/14 03:21:10;;;;;;;1.87;1.20;;;;;;;7.63;100.00;94884.88;5029384;28;20202;-86
2023/12/14 03:23:36;;;;;;;1.37;1.27;;;;;;;7.66;100.00;94899.09;5029141;28;20198;-87
2023/12/14 03:26:03;;;;;;;1.10;1.10;;;;;;;7.68;100.00;94890.28;5029256;28;20218;-86
2023/12/14 03:28:34;;;;;;;1.40;1.30;;;;;;;7.67;100.00;94885.34;5014549;28;20210;-87
2023/12/14 03:31:04;;;;;;;1.30;1.20;;;;;;;7.65;100.00;94893.19;5025135;28;20204;-86
2023/12/14 03:33:30;;;;;;;1.60;1.50;;;;;;;7.66;100.00;94899.09;5026942;28;20209;-86
2023/12/14 03:35:57;;;;;;;3.00;1.60;;;;;;;7.61;100.00;94917.56;5028880;28;20567;-87
2023/12/14 03:38:23;;;;;;;1.50;1.40;;;;;;;7.59;100.00;94906.69;5015874;28;20213;-86
2023/12/14 03:40:49;;;;;;;1.40;1.30;;;;;;;7.65;100.00;94910.31;5011316;28;20289;-86
2023/12/14 03:43:16;;;;;;;1.53;1.43;;;;;;;7.73;100.00;94923.84;5027932;28;20193;-86
2023/12/14 03:48:27;;;;;;;1.50;1.40;;;;;;;7.63;100.00;94913.84;5026207;28;20281;-87
2023/12/14 03:51:03;;;;;;;2.20;1.30;;;;;;;7.62;100.00;94929.41;5028846;28;20214;-87
2023/12/14 03:53:32;;;;;;;1.50;1.40;;;;;;;7.65;100.00;94930.81;5017899;28;20572;-87
2023/12/14 03:55:59;;;;;;;1.60;1.50;;;;;;;7.69;100.00;94937.19;5028572;28;20217;-86
2023/12/14 03:58:26;;;;;;;1.40;1.30;;;;;;;7.74;100.00;94935.69;5027941;28;20212;-87
2023/12/14 04:00:54;;;;;;;1.40;1.30;;;;;;;7.77;100.00;94931.97;5028884;28;20214;-87
2023/12/14 04:03:20;;;;;;;1.60;1.50;;;;;;;7.76;100.00;94930.38;5027579;28;20205;-88
2023/12/14 04:05:46;;;;;;;1.70;1.60;;;;;;;7.65;100.00;94926.50;5027709;28;20594;-86
2023/12/14 04:08:15;;;;;;;1.70;1.60;;;;;;;7.62;100.00;94926.84;5024234;28;20754;-86
2023/12/14 04:10:43;;;;;;;1.83;1.53;;;;;;;7.60;100.00;94939.03;5021807;28;20203;-87
2023/12/14 04:13:10;;;;;;;1.50;1.40;;;;;;;7.61;100.00;94940.63;5009700;28;20579;-87
2023/12/14 04:15:36;;;;;;;1.50;1.40;;;;;;;7.65;100.00;94949.56;5008534;28;20211;-87
2023/12/14 04:18:04;;;;;;;1.50;1.40;;;;;;;7.63;100.00;94951.50;5020563;28;20218;-86
2023/12/14 04:20:30;;;;;;;1.60;1.50;;;;;;;7.68;100.00;94949.22;5026873;28;20217;-87
2023/12/14 04:23:00;;;;;;;1.60;1.50;;;;;;;7.63;100.00;94952.28;5028488;28;20206;-87
2023/12/14 04:25:32;;;;;;;1.40;1.30;;;;;;;7.58;100.00;94952.00;5021344;28;20223;-87
2023/12/14 04:28:07;;;;;;;1.40;1.30;;;;;;;7.61;100.00;94959.34;5019925;28;20230;-87
2023/12/14 04:30:39;;;;;;;1.40;1.30;;;;;;;7.61;100.00;94958.53;5009862;28;20858;-86
2023/12/14 04:33:16;;;;;;;1.63;1.53;;;;;;;7.61;100.00;94969.59;5027591;28;20686;-86
2023/12/14 04:35:52;;;;;;;1.40;1.30;;;;;;;7.65;100.00;94971.81;5026699;28;20185;-87
2023/12/14 04:38:22;;;;;;;1.40;1.30;;;;;;;7.66;100.00;94960.59;5022286;28;20222;-87
2023/12/14 04:40:57;;;;;;;1.60;1.50;;;;;;;7.68;100.00;94963.78;5028636;28;20197;-87
2023/12/14 04:43:30;;;;;;;1.50;1.40;;;;;;;7.65;100.00;94954.69;5028329;28;20208;-87
2023/12/14 04:45:56;;;;;;;1.57;1.43;;;;;;;7.59;100.00;94955.34;5028413;28;20221;-87
2023/12/14 04:48:24;;;;;;;2.03;1.30;;;;;;;7.60;100.00;94969.75;5030580;28;20265;-88
2023/12/14 04:50:51;;;;;;;1.40;1.30;;;;;;;7.61;100.00;94977.28;5021534;28;20238;-87
2023/12/14 04:53:17;;;;;;;1.30;1.20;;;;;;;7.60;100.00;94967.19;5031116;28;20210;-86
2023/12/14 04:55:43;;;;;;;1.40;1.30;;;;;;;7.63;100.00;94979.66;5030212;28;20573;-86
2023/12/14 04:58:14;;;;;;;1.20;1.10;;;;;;;7.65;100.00;94977.72;5012651;28;20219;-87
2023/12/14 05:00:47;;;;;;;1.30;1.00;;;;;;;7.58;99.81;94967.38;5012130;28;20214;-87
2023/12/14 05:03:19;;;;;;;1.20;1.10;;;;;;;7.56;99.62;94971.88;5012183;28;20202;-87
2023/12/14 05:05:57;;;;;;;1.37;1.00;;;;;;;7.60;99.83;94980.00;5023023;28;20603;-87
2023/12/14 05:08:26;;;;;;;1.30;1.13;;;;;;;7.59;99.44;94979.22;5022649;28;20214;-87
2023/12/14 05:11:04;;;;;;;1.17;1.07;;;;;;;7.56;99.87;94978.75;5031974;28;20228;-87
2023/12/14 05:13:36;;;;;;;1.70;0.97;;;;;;;7.56;100.00;94994.13;5031319;28;20201;-87
2023/12/14 05:16:14;;;;;;;1.17;1.07;;;;;;;7.54;100.00;94998.63;5031954;28;20198;-87
2023/12/14 05:18:43;;;;;;;1.67;1.00;;;;;;;7.52;99.77;94998.00;5031736;28;20551;-87
2023/12/14 05:21:18;;;;;;;1.10;1.00;;;;;;;7.50;99.73;95000.75;5031990;28;20202;-87
2023/12/14 05:23:51;;;;;;;1.17;1.07;;;;;;;7.49;99.71;94998.38;5031090;28;20190;-87
2023/12/14 05:26:23;;;;;;;1.13;1.03;;;;;;;7.44;99.88;95008.31;5029737;28;20254;-86
2023/12/14 05:28:58;;;;;;;1.03;1.00;;;;;;;7.48;100.00;95019.81;5029990;28;20210;-87
2023/12/14 05:31:31;;;;;;;1.80;1.00;;;;;;;7.47;100.00;95042.06;5030865;28;20685;-87
2023/12/14 05:34:03;;;;;;;1.27;1.17;;;;;;;7.51;100.00;95047.63;5031518;28;20216;-88
2023/12/14 05:36:36;;;;;;;1.33;1.00;;;;;;;7.52;100.00;95044.09;5029849;28;20707;-85
2023/12/14 05:39:11;;;;;;;2.80;1.53;;;;;;;7.45;100.00;95051.69;5017045;28;20203;-90
2023/12/14 05:41:47;;;;;;;2.03;1.10;;;;;;;7.41;100.00;95059.88;5023134;28;20190;-88
2023/12/14 05:44:20;;;;;;;1.63;1.20;;;;;;;7.46;100.00;95067.84;5023369;28;20830;-87
2023/12/14 05:46:55;;;;;;;1.40;1.30;;;;;;;7.50;100.00;95079.34;5021074;28;20223;-87
2023/12/14 05:49:25;;;;;;;1.20;1.10;;;;;;;7.46;100.00;95089.13;5021398;28;20208;-87
2023/12/14 05:52:02;;;;;;;1.50;1.30;;;;;;;7.52;100.00;95097.88;5021902;28;20191;-87
2023/12/14 05:54:36;;;;;;;1.50;1.40;;;;;;;7.52;100.00;95100.44;5017353;28;20202;-87
2023/12/14 05:57:09;;;;;;;2.93;1.43;;;;;;;7.53;100.00;95102.03;5024851;28;20236;-87
2023/12/14 05:59:41;;;;;;;2.03;1.40;;;;;;;7.45;100.00;95104.66;5021821;28;20206;-88
2023/12/14 06:02:17;;;;;;;2.70;1.33;;;;;;;7.37;100.00;95125.19;5029800;28;20213;-87
2023/12/14 06:04:52;;;;;;;1.63;1.53;;;;;;;7.41;100.00;95149.50;5022016;28;20205;-88
2023/12/14 06:07:23;;;;;;;3.43;2.20;;;;;;;7.47;100.00;95156.53;5029835;28;20673;-88
2023/12/14 06:09:56;;;;;;;2.73;2.00;;;;;;;7.52;100.00;95154.25;5010670;28;20206;-88
2023/12/14 06:12:31;;;;;;;3.20;2.10;;;;;;;7.56;100.00;95150.38;5010864;28;20715;-87
2023/12/14 06:15:06;;;;;;;2.53;1.80;;;;;;;7.50;100.00;95159.56;5030813;28;20214;-87
2023/12/14 06:17:37;;;;;;;2.63;2.00;;;;;;;7.52;100.00;95169.59;5030181;28;20699;-88
2023/12/14 06:20:12;;;;;;;4.80;2.00;;;;;;;7.52;100.00;95172.16;5030214;28;20229;-87
2023/12/14 06:22:45;;;;;;;4.13;3.60;;;;;;;7.54;100.00;95167.69;5030567;28;20198;-88
2023/12/14 06:25:21;;;;;;;5.13;4.23;;;;;;;7.57;100.00;95177.59;5029243;28;20226;-88
2023/12/14 06:27:54;;;;;;;3.70;2.70;;;;;;;7.56;100.00;95171.66;5029960;28;20234;-87
2023/12/14 06:30:26;;;;;;;3.47;2.40;;;;;;;7.54;100.00;95175.38;5028067;28;20202;-88
2023/12/14 06:32:59;;;;;;;3.67;2.60;;;;;;;7.57;100.00;95190.41;5030144;28;20194;-87
2023/12/14 06:35:34;;;;;;;3.43;2.60;;;;;;;7.53;100.00;95201.94;5030201;28;20285;-88
2023/12/14 06:38:08;;;;;;;3.30;2.60;;;;;;;7.54;100.00;95206.09;5029963;28;20222;-88
2023/12/14 06:40:44;;;;;;;2.63;2.20;;;;;;;7.57;100.00;95208.34;5029918;28;20202;-87
2023/12/14 06:43:15;;;;;;;3.13;2.50;;;;;;;7.60;100.00;95205.44;4983652;28;21007;-86
2023/12/14 06:45:51;;;;;;;2.67;2.30;;;;;;;7.63;100.00;95210.25;5032656;28;20230;-87
2023/12/14 06:48:24;;;;;;;4.07;2.20;;;;;;;7.63;100.00;95220.47;5028942;28;20730;-87
2023/12/14 06:50:57;;;;;;;2.63;2.20;;;;;;;7.62;100.00;95224.00;5030084;28;20232;-87
2023/12/14 06:53:35;;;;;;;4.70;3.93;;;;;;;7.64;100.00;95219.53;5029877;28;20273;-87
2023/12/14 06:56:05;;;;;;;2.23;2.10;;;;;;;7.65;100.00;95217.75;5029504;28;20197;-88
2023/12/14 06:58:42;;;;;;;4.03;2.93;;;;;;;7.69;100.00;95226.72;5029454;28;20206;-88
2023/12/14 07:01:15;;;;;;;2.67;2.47;;;;;;;7.61;100.00;95222.41;5020558;28;20198;-90
2023/12/14 07:03:48;;;;;;;2.67;2.47;;;;;;;7.58;100.00;95238.09;5029764;28;20223;-87
2023/12/14 07:06:21;;;;;;;16.33;14.00;;;;;;;7.65;100.00;95244.19;5029273;28;20592;-88
2023/12/14 07:08:54;;;;;;;16.30;13.43;;;;;;;7.68;100.00;95243.84;5028301;28;20209;-90
2023/12/14 07:11:26;;;;;;;7.07;6.27;;;;;;;7.69;100.00;95249.78;5029650;28;20186;-90
2023/12/14 07:13:59;;;;;;;5.23;3.07;;;;;;;7.75;100.00;95256.78;5029825;28;20198;-90
2023/12/14 07:16:34;;;;;;;2.80;2.60;;;;;;;7.67;100.00;95241.44;5028782;28;20706;-89
2023/12/14 07:19:07;;;;;;;3.17;2.87;;;;;;;7.71;100.00;95252.94;5025413;28;20205;-90
2023/12/14 07:21:42;;;;;;;4.30;3.60;;;;;;;7.74;100.00;95261.09;5029469;28;20199;-89
2023/12/14 07:24:17;;;;;;;5.00;4.13;;;;;;;7.72;100.00;95259.66;5028874;28;20208;-89
2023/12/14 07:26:50;;;;;;;4.90;3.83;;;;;;;7.75;100.00;95267.03;5028909;28;20229;-90
2023/12/14 07:29:22;;;;;;;4.73;3.23;;;;;;;7.63;100.00;95267.41;5029016;28;20218;-90
2023/12/14 07:31:58;;;;;;;4.60;3.37;;;;;;;7.72;100.00;95280.16;5029629;28;20285;-89
2023/12/14 07:34:31;;;;;;;4.17;3.20;;;;;;;7.78;100.00;95279.50;5027720;28;20214;-88
2023/12/14 07:37:05;;;;;;;4.70;3.57;;;;;;;7.82;100.00;95271.31;5029283;28;20230;-89
2023/12/14 07:39:36;;;;;;;4.93;3.77;;;;;;;7.80;100.00;95273.25;5028853;28;20204;-88
2023/12/14 07:42:11;;;;;;;5.97;4.10;;;;;;;7.81;100.00;95276.63;5029582;28;20202;-88
2023/12/14 07:44:46;;;;;;;4.90;3.83;;;;;;;7.72;100.00;95285.28;5029471;28;20205;-89
2023/12/14 07:47:19;;;;;;;4.53;4.13;;;;;;;7.74;100.00;95291.84;5028970;28;20301;-89
2023/12/14 07:49:55;;;;;;;11.27;4.27;;;;;;;7.79;100.00;95299.84;5027867;28;20225;-88
2023/12/14 07:52:43;;;;;;;;;;;;;;;;;;;;;
2023/12/14 07:58:14;;;;;;;4.67;4.17;;;;;;;7.95;100.00;95298.97;5025232;28;20226;-88
2023/12/14 08:01:09;;;;;;;4.93;4.53;;;;;;;7.90;100.00;95296.91;5029167;28;20202;-88
2023/12/14 08:03:36;;;;;;;5.20;4.70;;;;;;;7.94;100.00;95308.44;5029464;28;20197;-89
2023/12/14 08:06:03;;;;;;;4.87;4.37;;;;;;;7.91;100.00;95306.19;5026507;28;20229;-88
2023/12/14 08:08:29;;;;;;;5.67;4.73;;;;;;;7.83;100.00;95308.81;5028535;28;20754;-88
2023/12/14 08:11:03;;;;;;;6.53;5.13;;;;;;;7.83;100.00;95315.69;5028873;28;20206;-88
2023/12/14 08:13:35;;;;;;;5.70;5.10;;;;;;;7.89;100.00;95327.81;5028620;28;20301;-88
2023/12/14 08:16:09;;;;;;;6.93;4.97;;;;;;;7.89;100.00;95330.38;5028816;28;20260;-89
2023/12/14 08:18:45;;;;;;;5.63;4.90;;;;;;;7.89;100.00;95336.31;5029698;28;20206;-89
2023/12/14 08:21:19;;;;;;;5.73;5.23;;;;;;;7.84;100.00;95343.72;5029725;28;20202;-89
2023/12/14 08:23:51;;;;;;;7.87;5.37;;;;;;;7.82;100.00;95350.78;5026268;28;20229;-88
2023/12/14 08:26:24;;;;;;;6.47;5.50;;;;;;;7.89;100.00;95358.59;5028237;28;20233;-88
2023/12/14 08:28:57;;;;;;;5.70;5.20;;;;;;;7.91;100.00;95372.03;5028434;28;20578;-91
2023/12/14 08:31:33;;;;;;;5.77;5.23;;;;;;;8.00;100.00;95373.63;5028339;28;20186;-91
2023/12/14 08:34:05;;;;;;;5.77;5.27;;;;;;;7.92;100.00;95371.06;5029048;28;20213;-90
2023/12/14 08:36:38;;;;;;;5.90;4.90;;;;;;;7.87;100.00;95379.28;5028278;28;20305;-90
2023/12/14 08:39:13;;;;;;;5.73;5.00;;;;;;;7.89;100.00;95399.59;5023268;28;20225;-89
2023/12/14 08:41:48;;;;;;;6.10;5.50;;;;;;;7.96;100.00;95401.34;5025024;28;20663;-89
2023/12/14 08:44:21;;;;;;;6.77;5.20;;;;;;;7.96;100.00;95391.09;5028454;28;20194;-89
2023/12/14 08:46:54;;;;;;;5.43;4.93;;;;;;;7.94;100.00;95400.72;5052737;23;20515;-90
2023/12/14 08:49:29;;;;;;;5.57;5.07;;;;;;;7.83;100.00;95400.28;5030794;28;20197;-89
2023/12/14 08:52:04;;;;;;;5.10;4.47;;;;;;;7.85;100.00;95398.34;5020150;28;20205;-89
2023/12/14 08:54:38;;;;;;;4.83;4.33;;;;;;;7.89;100.00;95400.41;5024948;28;20208;-89
2023/12/14 08:57:12;;;;;;;5.67;4.70;;;;;;;7.90;100.00;95416.56;5027808;28;20721;-89
2023/12/14 08:59:44;;;;;;;5.70;4.40;;;;;;;7.96;100.00;95421.06;5027957;28;20217;-88
2023/12/14 09:02:16;;;;;;;4.70;4.30;;;;;;;7.98;100.00;95414.00;5027636;28;20206;-89
2023/12/14 09:04:54;;;;;;;4.30;3.90;;;;;;;7.98;100.00;95419.94;5028301;28;20879;-88
2023/12/14 09:07:26;;;;;;;4.00;3.60;;;;;;;7.92;100.00;95404.41;5029422;28;20348;-90
2023/12/14 09:10:02;;;;;;;4.17;3.77;;;;;;;7.91;100.00;95411.28;5009162;28;20206;-89
2023/12/14 09:12:38;;;;;;;4.40;4.00;;;;;;;7.97;100.00;95427.78;5022173;28;20229;-89
2023/12/14 09:15:15;;;;;;;3.90;3.30;;;;;;;8.00;100.00;95424.09;5028708;28;20206;-90
2023/12/14 09:17:47;;;;;;;4.30;3.90;;;;;;;8.04;100.00;95433.88;5027978;28;20221;-90
2023/12/14 09:20:40;;;;;;;3.63;3.33;;;;;;;8.11;100.00;95454.50;5027987;28;20212;-89
2023/12/14 09:23:07;;;;;;;4.17;3.77;;;;;;;8.04;100.00;95451.00;5035697;28;20371;-89
2023/12/14 09:25:36;;;;;;;6.03;4.20;;;;;;;8.04;100.00;95464.63;5028441;28;20202;-89
2023/12/14 09:28:07;;;;;;;5.00;3.50;;;;;;;7.94;100.00;95467.34;5026113;28;20245;-89
2023/12/14 09:30:42;;;;;;;4.30;3.67;;;;;;;7.86;100.00;95479.41;5007907;28;20218;-89
2023/12/14 09:33:16;;;;;;;4.33;3.57;;;;;;;7.83;100.00;95492.53;5029733;28;20214;-89
2023/12/14 09:36:00;;;;;;;3.33;3.03;;;;;;;7.90;100.00;95511.41;5031856;28;20694;-90
2023/12/14 09:38:27;;;;;;;3.80;3.50;;;;;;;7.96;100.00;95511.59;5031807;28;20233;-89
2023/12/14 09:41:02;;;;;;;4.63;3.43;;;;;;;7.98;100.00;95501.16;5031873;28;20402;-89
2023/12/14 09:43:38;;;;;;;3.97;3.47;;;;;;;7.98;100.00;95506.28;5030315;28;20206;-89
2023/12/14 09:46:12;;;;;;;3.77;3.47;;;;;;;8.03;100.00;95503.25;5031409;28;20205;-89
2023/12/14 09:48:49;;;;;;;4.10;3.70;;;;;;;8.05;100.00;95509.03;5023121;28;20286;-90
2023/12/14 09:51:26;;;;;;;4.30;3.90;;;;;;;8.07;100.00;95497.66;5011576;28;20833;-89
2023/12/14 09:54:05;;;;;;;4.20;3.80;;;;;;;8.07;100.00;95505.34;5011410;28;20202;-89
2023/12/14 09:56:47;;;;;;;6.13;4.30;;;;;;;8.15;100.00;95505.31;5011380;28;20707;-88
2023/12/14 09:59:21;;;;;;;4.93;4.00;;;;;;;8.20;100.00;95507.38;5018813;28;20290;-89
2023/12/14 10:02:10;;;;;;;4.30;3.90;;;;;;;8.15;100.00;95497.59;5031610;28;20233;-89
2023/12/14 10:04:38;;;;;;;4.30;3.90;;;;;;;8.06;100.00;95490.91;5030771;28;20183;-89
2023/12/14 10:07:06;;;;;;;3.87;3.57;;;;;;;8.10;100.00;95499.06;5030664;28;20230;-89
2023/12/14 10:09:36;;;;;;;4.10;3.70;;;;;;;8.09;100.00;95503.38;5030418;28;20206;-89
2023/12/14 10:12:31;;;;;;;3.43;3.13;;;;;;;7.99;100.00;95510.47;5037182;28;20206;-89
2023/12/14 10:15:06;;;;;;;3.17;2.90;;;;;;;7.94;100.00;95512.69;5029321;28;20292;-89
2023/12/14 10:17:32;;;;;;;3.13;2.73;;;;;;;7.89;100.00;95513.19;5030111;28;20228;-87
2023/12/14 10:20:00;;;;;;;2.83;2.60;;;;;;;7.90;100.00;95516.53;5031014;28;20226;-88
2023/12/14 10:22:32;;;;;;;3.80;3.00;;;;;;;7.86;100.00;95521.22;5030544;28;20206;-90
2023/12/14 10:25:02;;;;;;;3.10;2.90;;;;;;;7.83;100.00;95533.53;5028523;28;20198;-89
2023/12/14 10:27:28;;;;;;;3.27;2.90;;;;;;;7.79;100.00;95545.88;5010527;28;20779;-90
2023/12/14 10:29:56;;;;;;;3.20;2.90;;;;;;;7.88;100.00;95546.69;5010095;28;20673;-89
2023/12/14 10:32:41;;;;;;;2.97;2.77;;;;;;;7.94;100.00;95551.16;5025628;28;20205;-89
2023/12/14 10:35:07;;;;;;;3.13;2.87;;;;;;;7.97;100.00;95554.19;5029598;28;20202;-89
2023/12/14 10:37:38;;;;;;;3.67;3.37;;;;;;;8.03;100.00;95551.97;5030342;28;20226;-89
2023/12/14 10:40:21;;;;;;;4.10;3.30;;;;;;;8.07;100.00;95556.63;5030217;28;20197;-90
2023/12/14 10:42:49;;;;;;;3.77;2.87;;;;;;;7.97;100.00;95550.84;5029910;28;20672;-89
2023/12/14 10:45:18;;;;;;;3.53;3.00;;;;;;;7.97;100.00;95568.78;5020542;28;20285;-89
2023/12/14 10:48:04;;;;;;;3.23;2.80;;;;;;;7.98;100.00;95576.31;5028152;28;20713;-88
2023/12/14 10:50:31;;;;;;;3.50;3.20;;;;;;;7.96;100.00;95578.22;5029662;28;20194;-89
2023/12/14 10:52:59;;;;;;;3.60;3.30;;;;;;;8.04;100.00;95580.00;5029826;28;20233;-89
2023/12/14 10:55:42;;;;;;;3.63;3.33;;;;;;;8.03;100.00;95575.84;5029353;28;20280;-89
2023/12/14 10:58:09;;;;;;;2.87;2.50;;;;;;;8.28;100.00;95681.75;5031178;28;20218;-88
2023/12/14 11:00:37;;;;;;;3.73;3.43;;;;;;;8.51;100.00;95712.75;5030670;28;20210;-88
2023/12/14 11:03:05;;;;;;;5.30;3.60;;;;;;;8.52;100.00;95609.16;5029191;28;20557;-88
2023/12/14 11:05:46;;;;;;;4.77;4.20;;;;;;;8.49;100.00;95566.66;5029530;28;20213;-88
2023/12/14 11:08:14;;;;;;;4.00;3.60;;;;;;;8.39;100.00;95550.66;5030121;28;20233;-88
2023/12/14 11:10:42;;;;;;;3.43;3.13;;;;;;;8.38;100.00;95548.25;5030188;28;20599;-88
2023/12/14 11:13:24;;;;;;;2.83;2.63;;;;;;;8.25;100.00;95543.59;5029907;28;20221;-88
2023/12/14 11:15:53;;;;;;;3.27;2.80;;;;;;;8.29;100.00;95543.09;5027160;28;20408;-88
2023/12/14 11:18:30;;;;;;;4.93;3.00;;;;;;;8.34;100.00;95544.41;5028728;28;20682;-88
2023/12/14 11:21:01;;;;;;;3.90;3.00;;;;;;;8.44;100.00;95547.59;5026227;28;20240;-88
2023/12/14 11:23:31;;;;;;;2.90;2.60;;;;;;;8.40;100.00;95529.19;5009142;28;20207;-89
2023/12/14 11:25:59;;;;;;;2.63;2.43;;;;;;;8.42;100.00;95529.00;5009209;28;20294;-88
2023/12/14 11:28:25;;;;;;;3.00;2.43;;;;;;;8.46;100.00;95531.09;5009025;28;20234;-88
2023/12/14 11:30:52;;;;;;;3.10;2.80;;;;;;;8.53;100.00;95539.72;5009935;28;20261;-89
2023/12/14 11:33:29;;;;;;;3.77;2.50;;;;;;;8.61;100.00;95546.59;5029318;28;20201;-89
2023/12/14 11:35:56;;;;;;;2.93;2.20;;;;;;;8.87;100.00;95521.47;5027361;28;20202;-88
2023/12/14 11:38:24;;;;;;;2.53;2.33;;;;;;;9.28;99.56;95518.69;5028305;28;20230;-88
2023/12/14 11:40:50;;;;;;;2.90;2.10;;;;;;;9.27;96.32;95473.41;5022238;28;20202;-89
2023/12/14 11:43:20;;;;;;;1.83;1.73;;;;;;;9.15;93.19;95424.22;5028111;28;20284;-88
2023/12/14 11:45:53;;;;;;;1.63;1.53;;;;;;;9.06;92.93;95420.09;5028339;28;20230;-88
2023/12/14 11:48:20;;;;;;;1.80;1.60;;;;;;;8.99;93.02;95420.00;5028119;28;20222;-89
2023/12/14 11:50:48;;;;;;;1.87;1.77;;;;;;;8.88;93.31;95419.56;5029013;28;20194;-88
2023/12/14 11:53:15;;;;;;;2.33;1.80;;;;;;;8.85;94.15;95428.41;5027499;28;20217;-88
2023/12/14 11:55:54;;;;;;;2.90;1.30;;;;;;;8.81;94.63;95452.03;5028103;28;20206;-88
2023/12/14 11:58:20;;;;;;;1.63;1.50;;;;;;;8.75;94.93;95448.38;5027671;28;20226;-89
2023/12/14 12:00:47;;;;;;;2.00;1.80;;;;;;;8.82;95.45;95467.28;5029082;28;20197;-89
2023/12/14 12:03:15;;;;;;;3.03;1.80;;;;;;;8.82;95.02;95459.56;5028824;28;20206;-89
2023/12/14 12:05:56;;;;;;;1.73;1.60;;;;;;;8.84;95.76;95479.94;5028260;28;20202;-89